首页
METAR-TAF:

METAR-TAF

机场 :

Parsons, 田纳西州, 美国

纬度: 35-39-23N, 经度: 088-11-43W, 海拔: 149米

当前天气观测

该预报发布于16分钟前的16:55 UTC
风速11节,风向南转西南
温度 9°C
湿度 49%
气压 1019 hPa
能見度: 16.1公里
多云层高于3700英尺
多云层高于4400英尺

METAR: KPVE 121655Z AUTO 21011KT 10SM BKN037 BKN044 09/M01 A3010 RMK A01

时间: 11:11 (17:11 UTC)


TAF: 丢失

超过4000个机场的气象观测和天气预报(METAR&TAF报告)。

可查询的气象台以黄色和红色小点在地图上表示。

将鼠标移到小点上方,可查看气象台名称。

然后点击查看天气观测和预报。

如需切换地图:点击带黑十字的绿色按钮放大地图;点击带横线的绿色按钮缩小地图;或者点击绿色箭头查看邻近地区的地图。


METAR-TAF: